Redding, Iowa
Current Conditions -  °F | °C
As of 5:53 PM on Friday 24 Oct 2014 (Local Time) from KLWD Reporting Station
Clear Clear  
Wind Chill: 68°   Ceiling: Unl
Heat Index: 68°   Visibility: 9mi
Dew Point: 62°   Wind: 3mph
Humidity: 81%   Direction: 210°SSW
Pressure: 29.92"   Gusts: NA
Location:  40.6°N, 94.39°W
Report Text: KLWD 242253Z AUTO 21003KT 9SM CLR 20/17 A2992 RMK AO2 SLP130 T02000167
Loading
Personal Weather Stations






























Interactive Weather Map
Tropical Storm Tracking
New forecast layout! Learn more

10-Day Weather Forecast

Advertisements
Track Severe Weather on mobile